createdAt,value
2023-05-08T00:01:43.396Z,13.35
2023-05-08T00:04:12.298Z,13.35
2023-05-08T00:06:40.796Z,13.35
2023-05-08T00:09:09.914Z,13.37
2023-05-08T00:11:38.967Z,13.41
2023-05-08T00:14:07.930Z,13.43
2023-05-08T00:16:37.750Z,13.46
2023-05-08T00:19:06.623Z,13.49
2023-05-08T00:21:35.017Z,13.50
2023-05-08T00:24:03.376Z,13.52
2023-05-08T00:26:31.937Z,13.52
2023-05-08T00:29:00.732Z,13.54
2023-05-08T00:31:29.099Z,13.54
2023-05-08T00:33:58.933Z,13.54
2023-05-08T00:36:28.491Z,13.51
2023-05-08T00:38:56.870Z,13.49
2023-05-08T00:41:25.323Z,13.47
2023-05-08T00:43:54.165Z,13.44
2023-05-08T00:46:23.035Z,13.40
2023-05-08T00:48:51.817Z,13.34
2023-05-08T00:51:22.273Z,13.29
2023-05-08T00:53:51.561Z,13.23
2023-05-08T00:56:22.037Z,13.17
2023-05-08T00:58:51.545Z,13.09
2023-05-08T01:01:20.658Z,13.02
2023-05-08T01:03:49.962Z,12.95
2023-05-08T01:06:20.649Z,12.89
2023-05-08T01:08:49.680Z,12.82
2023-05-08T01:11:25.594Z,12.75
2023-05-08T01:14:09.042Z,12.69
2023-05-08T01:16:45.527Z,12.63
2023-05-08T01:19:55.482Z,12.55
2023-05-08T01:22:47.888Z,12.47
2023-05-08T01:25:52.661Z,12.41
2023-05-08T01:29:14.455Z,12.34
2023-05-08T01:32:08.762Z,12.29
2023-05-08T01:34:46.516Z,12.25
2023-05-08T01:37:23.472Z,12.21
2023-05-08T01:40:00.775Z,12.19
2023-05-08T01:42:40.774Z,12.16
2023-05-08T01:45:15.723Z,12.12
2023-05-08T01:47:52.285Z,12.08
2023-05-08T01:50:28.249Z,12.06
2023-05-08T01:53:04.569Z,12.04
2023-05-08T01:55:37.320Z,12.02
2023-05-08T01:58:11.022Z,11.99
2023-05-08T02:00:42.144Z,11.96
2023-05-08T02:03:13.958Z,11.94
2023-05-08T02:05:44.372Z,11.94
2023-05-08T02:08:15.657Z,11.91
2023-05-08T02:10:46.414Z,11.89
2023-05-08T02:13:19.137Z,11.86
2023-05-08T02:15:49.906Z,11.84
2023-05-08T02:18:26.339Z,11.80
2023-05-08T02:20:57.447Z,11.77
2023-05-08T02:23:27.938Z,11.74
2023-05-08T02:25:57.370Z,11.72
2023-05-08T02:28:27.538Z,11.69
2023-05-08T02:30:58.130Z,11.66
2023-05-08T02:33:30.529Z,11.65
2023-05-08T02:36:00.479Z,11.62
2023-05-08T02:38:30.156Z,11.60
2023-05-08T02:41:03.502Z,11.59
2023-05-08T02:43:32.677Z,11.57
2023-05-08T02:46:10.884Z,11.54
2023-05-08T02:48:49.539Z,11.53
2023-05-08T02:51:28.147Z,11.51
2023-05-08T02:54:02.847Z,11.46
2023-05-08T02:56:40.482Z,11.44
2023-05-08T02:59:20.769Z,11.41
2023-05-08T03:01:58.182Z,11.39
2023-05-08T03:04:36.531Z,11.36
2023-05-08T03:07:06.652Z,11.34
2023-05-08T03:09:45.919Z,11.32
2023-05-08T03:12:24.733Z,11.31
2023-05-08T03:15:02.360Z,11.28
2023-05-08T03:17:34.925Z,11.27
2023-05-08T03:20:09.079Z,11.26
2023-05-08T03:22:40.136Z,11.25
2023-05-08T03:25:11.842Z,11.24
2023-05-08T03:27:41.646Z,11.24
2023-05-08T03:30:12.784Z,11.25
2023-05-08T03:32:43.423Z,11.25
2023-05-08T03:35:13.591Z,11.27
2023-05-08T03:37:42.868Z,11.29
2023-05-08T03:40:12.417Z,11.31
2023-05-08T03:42:43.151Z,11.32
2023-05-08T03:45:13.572Z,11.34
2023-05-08T03:47:44.315Z,11.34
2023-05-08T03:50:15.771Z,11.35
2023-05-08T03:52:44.888Z,11.35
2023-05-08T03:55:13.509Z,11.33
2023-05-08T03:57:49.536Z,11.33
2023-05-08T04:00:30.816Z,11.31
2023-05-08T04:03:17.001Z,11.30
2023-05-08T04:06:04.255Z,11.25
2023-05-08T04:08:43.356Z,11.24
2023-05-08T04:11:20.296Z,11.22
2023-05-08T04:14:03.251Z,11.21
2023-05-08T04:16:39.900Z,11.19
2023-05-08T04:19:13.579Z,11.19
2023-05-08T04:21:45.923Z,11.18
2023-05-08T04:24:16.704Z,11.18
2023-05-08T04:26:47.037Z,11.17
2023-05-08T04:29:16.078Z,11.16
2023-05-08T04:31:45.297Z,11.17
2023-05-08T04:34:14.190Z,11.17
2023-05-08T04:36:44.499Z,11.18
2023-05-08T04:39:12.927Z,11.21
2023-05-08T04:41:41.317Z,11.23
2023-05-08T04:44:09.891Z,11.28
2023-05-08T04:46:38.890Z,11.31
2023-05-08T04:49:07.485Z,11.34
2023-05-08T04:51:37.264Z,11.38
2023-05-08T04:54:07.244Z,11.42
2023-05-08T04:56:36.208Z,11.45
2023-05-08T04:59:04.579Z,11.50
2023-05-08T05:01:33.290Z,11.55
2023-05-08T05:04:01.874Z,11.61
2023-05-08T05:06:31.353Z,11.66
2023-05-08T05:08:59.786Z,11.71
2023-05-08T05:11:29.788Z,11.76
2023-05-08T05:13:58.199Z,11.81
2023-05-08T05:16:27.450Z,11.87
2023-05-08T05:18:56.767Z,11.92
2023-05-08T05:21:25.920Z,11.99
2023-05-08T05:23:54.907Z,12.04
2023-05-08T05:26:23.405Z,12.08
2023-05-08T05:28:53.260Z,12.14
2023-05-08T05:31:22.115Z,12.21
2023-05-08T05:33:51.168Z,12.29
2023-05-08T05:36:19.913Z,12.37
2023-05-08T05:38:48.887Z,12.45
2023-05-08T05:41:17.488Z,12.54
2023-05-08T05:43:45.883Z,12.60
2023-05-08T05:46:15.767Z,12.68
2023-05-08T05:48:44.385Z,12.72
2023-05-08T05:51:13.122Z,12.79
2023-05-08T05:53:41.651Z,12.87
2023-05-08T05:56:09.983Z,12.95
2023-05-08T05:58:40.492Z,13.05
2023-05-08T06:01:08.846Z,13.13
2023-05-08T06:03:39.623Z,13.19
2023-05-08T06:06:08.728Z,13.25
2023-05-08T06:08:37.189Z,13.31
2023-05-08T06:11:05.600Z,13.35
2023-05-08T06:13:34.059Z,13.43
2023-05-08T06:16:02.546Z,13.52
2023-05-08T06:18:31.439Z,13.60
2023-05-08T06:21:01.553Z,13.70
2023-05-08T06:23:30.216Z,13.78
2023-05-08T06:26:01.937Z,13.81
2023-05-08T06:28:30.311Z,13.91
2023-05-08T06:30:58.833Z,14.15
2023-05-08T06:33:27.993Z,14.36
2023-05-08T06:35:56.682Z,14.54
2023-05-08T06:38:27.064Z,14.72
2023-05-08T06:40:56.149Z,14.90
2023-05-08T06:43:24.918Z,15.08
2023-05-08T06:45:54.070Z,15.20
2023-05-08T06:48:22.709Z,15.32
2023-05-08T06:50:53.056Z,15.44
2023-05-08T06:53:22.188Z,15.59
2023-05-08T06:55:52.916Z,15.66
2023-05-08T06:58:21.425Z,15.76
2023-05-08T07:00:50.332Z,15.87
2023-05-08T07:03:19.057Z,15.98
2023-05-08T07:05:47.470Z,16.09
2023-05-08T07:08:15.954Z,16.18
2023-05-08T07:10:44.976Z,16.28
2023-05-08T07:13:14.864Z,16.38
2023-05-08T07:15:43.476Z,16.47
2023-05-08T07:18:12.099Z,16.60
2023-05-08T07:20:40.686Z,16.72
2023-05-08T07:23:09.953Z,16.84
2023-05-08T07:25:38.341Z,16.94
2023-05-08T07:28:08.095Z,17.03
2023-05-08T07:30:37.946Z,17.13
2023-05-08T07:33:06.775Z,17.20
2023-05-08T07:35:35.636Z,17.29
2023-05-08T07:38:04.110Z,17.42
2023-05-08T07:40:32.513Z,17.55
2023-05-08T07:43:01.182Z,17.62
2023-05-08T07:45:29.847Z,17.67
2023-05-08T07:48:00.601Z,17.77
2023-05-08T07:50:29.478Z,17.90
2023-05-08T07:52:58.028Z,18.04
2023-05-08T07:55:27.331Z,18.15
2023-05-08T07:57:56.045Z,18.21
2023-05-08T08:00:24.968Z,18.27
2023-05-08T08:02:54.074Z,18.34
2023-05-08T08:05:24.864Z,18.44
2023-05-08T08:07:53.935Z,18.61
2023-05-08T08:10:22.692Z,18.81
2023-05-08T08:12:51.486Z,19.03
2023-05-08T08:15:21.016Z,19.18
2023-05-08T08:17:49.804Z,19.34
2023-05-08T08:20:18.625Z,19.49
2023-05-08T08:22:48.665Z,19.56
2023-05-08T08:25:17.925Z,19.57
2023-05-08T08:27:46.350Z,19.66
2023-05-08T08:30:17.648Z,19.79
2023-05-08T08:32:49.668Z,19.96
2023-05-08T08:35:18.491Z,19.99
2023-05-08T08:37:48.453Z,20.13
2023-05-08T08:40:17.116Z,20.27
2023-05-08T08:42:46.312Z,20.37
2023-05-08T08:45:14.955Z,20.45
2023-05-08T08:47:47.016Z,20.53
2023-05-08T08:50:16.898Z,20.61
2023-05-08T08:52:57.280Z,20.77
2023-05-08T08:55:27.683Z,20.99
2023-05-08T08:58:07.246Z,21.42
2023-05-08T09:00:38.610Z,21.77
2023-05-08T09:03:08.028Z,22.09
2023-05-08T09:05:37.759Z,22.27
2023-05-08T09:08:08.324Z,22.36
2023-05-08T09:10:37.546Z,22.46
2023-05-08T09:13:06.074Z,22.43
2023-05-08T09:15:35.431Z,22.35
2023-05-08T09:18:04.192Z,22.30
2023-05-08T09:20:32.857Z,22.33
2023-05-08T09:23:03.915Z,22.30
2023-05-08T09:25:47.538Z,22.39
2023-05-08T09:28:21.017Z,22.48
2023-05-08T09:30:55.388Z,22.50
2023-05-08T09:33:26.202Z,22.50
2023-05-08T09:35:55.395Z,22.59
2023-05-08T09:38:38.618Z,22.60
2023-05-08T09:41:17.627Z,22.66
2023-05-08T09:44:02.010Z,22.49
2023-05-08T09:46:30.978Z,22.41
2023-05-08T09:49:01.591Z,22.38
2023-05-08T09:51:32.530Z,22.45
2023-05-08T09:54:04.306Z,22.46
2023-05-08T09:56:36.606Z,22.41
2023-05-08T09:59:06.904Z,22.46
2023-05-08T10:01:36.901Z,22.52
2023-05-08T10:04:06.461Z,22.56
2023-05-08T10:06:36.566Z,22.57
2023-05-08T10:09:10.416Z,22.58
2023-05-08T10:11:41.366Z,22.64
2023-05-08T10:14:10.403Z,22.69
2023-05-08T10:16:43.768Z,22.75
2023-05-08T10:19:16.347Z,22.77
2023-05-08T10:21:48.605Z,22.86
2023-05-08T10:24:19.751Z,22.92
2023-05-08T10:27:07.103Z,23.04
2023-05-08T10:29:44.025Z,23.16
2023-05-08T10:32:14.516Z,23.28
2023-05-08T10:34:45.455Z,23.40
2023-05-08T10:37:14.644Z,23.57
2023-05-08T10:39:46.102Z,23.73
2023-05-08T10:42:16.270Z,23.85
2023-05-08T10:44:45.087Z,23.90
2023-05-08T10:47:22.614Z,23.87
2023-05-08T10:50:03.936Z,23.98
2023-05-08T10:52:46.407Z,24.14
2023-05-08T10:55:22.760Z,24.33
2023-05-08T10:58:13.387Z,24.48
2023-05-08T11:01:14.816Z,24.60
2023-05-08T11:03:50.606Z,24.70
2023-05-08T11:06:46.806Z,24.82
2023-05-08T11:09:23.579Z,24.89
2023-05-08T11:12:17.975Z,24.96
2023-05-08T11:15:00.363Z,25.07
2023-05-08T11:17:29.032Z,25.11
2023-05-08T11:20:00.294Z,25.09
2023-05-08T11:22:31.444Z,25.09
2023-05-08T11:25:03.205Z,25.21
2023-05-08T11:27:55.016Z,25.38
2023-05-08T11:30:28.645Z,25.57
2023-05-08T11:33:16.727Z,25.70
2023-05-08T11:35:49.481Z,25.85
2023-05-08T11:38:22.387Z,26.11
2023-05-08T11:40:59.738Z,26.40
2023-05-08T11:43:48.561Z,26.70
2023-05-08T11:46:21.880Z,27.03
2023-05-08T11:48:50.730Z,27.36
2023-05-08T11:51:20.917Z,27.74
2023-05-08T11:53:50.049Z,28.10
2023-05-08T11:56:19.491Z,28.35
2023-05-08T11:58:48.194Z,28.65
2023-05-08T12:01:22.331Z,28.95
2023-05-08T12:03:51.014Z,29.04
2023-05-08T12:06:21.360Z,29.35
2023-05-08T12:08:50.253Z,29.75
2023-05-08T12:11:25.255Z,30.14
2023-05-08T12:13:55.241Z,30.40
2023-05-08T12:16:26.679Z,30.77
2023-05-08T12:18:58.232Z,31.05
2023-05-08T12:21:27.615Z,31.26
2023-05-08T12:23:56.389Z,31.52
2023-05-08T12:26:25.166Z,31.87
2023-05-08T12:28:57.012Z,32.14
2023-05-08T12:31:27.469Z,32.47
2023-05-08T12:33:56.691Z,32.92
2023-05-08T12:36:25.255Z,33.25
2023-05-08T12:38:54.081Z,33.53
2023-05-08T12:41:26.400Z,33.79
2023-05-08T12:43:55.199Z,33.69
2023-05-08T12:46:28.217Z,33.81
2023-05-08T12:49:04.722Z,33.99
2023-05-08T12:51:33.250Z,34.29
2023-05-08T12:54:01.647Z,34.74
2023-05-08T12:56:29.919Z,35.01
2023-05-08T12:59:00.951Z,35.07
2023-05-08T13:01:32.179Z,35.30
2023-05-08T13:04:03.042Z,35.77
2023-05-08T13:06:31.893Z,36.22
2023-05-08T13:09:00.303Z,36.64
2023-05-08T13:11:34.059Z,36.95
2023-05-08T13:14:02.614Z,37.12
2023-05-08T13:16:32.442Z,37.11
2023-05-08T13:19:00.741Z,37.16
2023-05-08T13:21:29.160Z,37.29
2023-05-08T13:23:58.096Z,37.70
2023-05-08T13:26:27.779Z,37.85
2023-05-08T13:28:56.714Z,37.61
2023-05-08T13:31:25.445Z,36.70
2023-05-08T13:33:55.229Z,36.11
2023-05-08T13:36:25.049Z,36.39
2023-05-08T13:38:55.315Z,37.12
2023-05-08T13:41:23.838Z,37.80
2023-05-08T13:43:52.862Z,38.33
2023-05-08T13:46:21.616Z,38.94
2023-05-08T13:48:50.280Z,39.19
2023-05-08T13:51:20.331Z,39.23
2023-05-08T13:53:48.749Z,39.44
2023-05-08T13:56:17.198Z,39.72
2023-05-08T13:58:45.584Z,39.38
2023-05-08T14:01:25.482Z,38.14
2023-05-08T14:03:55.559Z,36.74
2023-05-08T14:06:26.134Z,35.65
2023-05-08T14:08:56.886Z,35.03
2023-05-08T14:11:26.980Z,35.62
2023-05-08T14:13:55.931Z,35.57
2023-05-08T14:16:25.073Z,35.44
2023-05-08T14:18:54.130Z,35.42
2023-05-08T14:21:24.582Z,36.60
2023-05-08T14:23:53.471Z,37.68
2023-05-08T14:26:22.260Z,38.42
2023-05-08T14:28:51.436Z,39.13
2023-05-08T14:31:20.278Z,38.78
2023-05-08T14:33:48.834Z,37.59
2023-05-08T14:36:17.374Z,36.28
2023-05-08T14:38:47.117Z,35.50
2023-05-08T14:41:15.662Z,35.00
2023-05-08T14:43:44.073Z,35.29
2023-05-08T14:46:12.670Z,36.36
2023-05-08T14:48:41.255Z,37.38
2023-05-08T14:51:09.673Z,38.13
2023-05-08T14:53:38.136Z,38.25
2023-05-08T14:56:09.184Z,37.67
2023-05-08T14:58:37.822Z,36.69
2023-05-08T15:01:06.923Z,36.50
2023-05-08T15:03:35.892Z,35.82
2023-05-08T15:06:05.295Z,34.75
2023-05-08T15:08:34.115Z,33.72
2023-05-08T15:11:02.571Z,32.86
2023-05-08T15:13:32.414Z,32.11
2023-05-08T15:16:05.482Z,31.55
2023-05-08T15:18:33.972Z,31.15
2023-05-08T15:21:02.599Z,30.75
2023-05-08T15:23:30.935Z,30.25
2023-05-08T15:25:59.432Z,29.75
2023-05-08T15:28:28.232Z,29.22
2023-05-08T15:30:58.485Z,28.77
2023-05-08T15:33:28.106Z,28.44
2023-05-08T15:35:56.567Z,28.03
2023-05-08T15:38:25.232Z,27.67
2023-05-08T15:40:54.004Z,27.31
2023-05-08T15:43:23.543Z,26.90
2023-05-08T15:45:52.625Z,26.52
2023-05-08T15:48:23.534Z,26.19
2023-05-08T15:50:51.915Z,25.92
2023-05-08T15:53:20.877Z,25.67
2023-05-08T15:55:49.329Z,25.33
2023-05-08T15:58:17.779Z,25.09
2023-05-08T16:00:46.381Z,24.94
2023-05-08T16:03:15.021Z,24.93
2023-05-08T16:05:44.968Z,24.82
2023-05-08T16:08:13.862Z,24.79
2023-05-08T16:10:42.923Z,24.82
2023-05-08T16:13:11.372Z,24.97
2023-05-08T16:15:40.887Z,25.84
2023-05-08T16:18:09.559Z,26.88
2023-05-08T16:20:38.063Z,27.32
2023-05-08T16:23:08.654Z,27.42
2023-05-08T16:25:37.064Z,27.22
2023-05-08T16:28:07.238Z,26.85
2023-05-08T16:30:35.669Z,26.49
2023-05-08T16:33:04.264Z,26.15
2023-05-08T16:35:33.510Z,25.88
2023-05-08T16:38:03.932Z,25.64
2023-05-08T16:40:34.325Z,25.44
2023-05-08T16:43:03.622Z,25.22
2023-05-08T16:45:32.041Z,25.07
2023-05-08T16:48:09.735Z,24.85
2023-05-08T16:50:38.283Z,24.68
2023-05-08T16:53:06.766Z,24.58
2023-05-08T16:55:36.662Z,24.46
2023-05-08T16:58:07.371Z,24.35
2023-05-08T17:00:35.806Z,24.23
2023-05-08T17:03:05.855Z,24.04
2023-05-08T17:05:35.726Z,23.80
2023-05-08T17:08:04.166Z,23.57
2023-05-08T17:10:32.777Z,23.33
2023-05-08T17:13:02.773Z,23.13
2023-05-08T17:15:31.255Z,22.95
2023-05-08T17:17:59.633Z,22.83
2023-05-08T17:20:28.670Z,22.73
2023-05-08T17:22:57.577Z,22.61
2023-05-08T17:25:26.788Z,22.56
2023-05-08T17:27:56.320Z,22.49
2023-05-08T17:30:27.612Z,22.44
2023-05-08T17:32:56.823Z,22.43
2023-05-08T17:35:26.554Z,22.40
2023-05-08T17:37:55.357Z,22.39
2023-05-08T17:40:26.686Z,22.38
2023-05-08T17:42:55.265Z,22.42
2023-05-08T17:45:25.329Z,22.46
2023-05-08T17:47:53.972Z,22.49
2023-05-08T17:50:23.143Z,22.50
2023-05-08T17:52:51.698Z,22.51
2023-05-08T17:55:20.269Z,22.51
2023-05-08T17:57:48.827Z,22.52
2023-05-08T18:00:18.463Z,22.54
2023-05-08T18:02:48.275Z,22.53
2023-05-08T18:05:16.893Z,22.47
2023-05-08T18:07:45.304Z,22.43
2023-05-08T18:10:13.825Z,22.39
2023-05-08T18:12:42.590Z,22.36
2023-05-08T18:15:12.263Z,22.33
2023-05-08T18:17:41.046Z,22.27
2023-05-08T18:20:12.393Z,22.19
2023-05-08T18:22:41.045Z,22.13
2023-05-08T18:25:10.422Z,22.04
2023-05-08T18:27:38.810Z,21.96
2023-05-08T18:30:10.093Z,21.84
2023-05-08T18:32:38.516Z,21.76
2023-05-08T18:35:11.656Z,21.67
2023-05-08T18:37:39.950Z,21.60
2023-05-08T18:40:10.122Z,21.53
2023-05-08T18:42:38.586Z,21.48
2023-05-08T18:45:09.161Z,21.43
2023-05-08T18:47:37.534Z,21.41
2023-05-08T18:50:11.773Z,21.40
2023-05-08T18:52:40.856Z,21.38
2023-05-08T18:55:10.430Z,21.37
2023-05-08T18:57:39.219Z,21.36
2023-05-08T19:00:09.612Z,21.37
2023-05-08T19:02:38.183Z,21.35
2023-05-08T19:05:09.195Z,21.34
2023-05-08T19:07:39.187Z,21.31
2023-05-08T19:10:10.016Z,21.26
2023-05-08T19:12:38.509Z,21.21
2023-05-08T19:15:09.449Z,21.16
2023-05-08T19:17:38.094Z,21.12
2023-05-08T19:20:09.752Z,21.09
2023-05-08T19:22:39.838Z,21.06
2023-05-08T19:25:09.053Z,21.01
2023-05-08T19:27:37.500Z,20.94
2023-05-08T19:30:08.528Z,20.89
2023-05-08T19:32:37.189Z,20.81
2023-05-08T19:35:06.781Z,20.74
2023-05-08T19:37:35.439Z,20.70
2023-05-08T19:40:06.055Z,20.68
2023-05-08T19:42:34.657Z,20.68
2023-05-08T19:45:03.136Z,20.66
2023-05-08T19:47:31.953Z,20.66
2023-05-08T19:50:00.425Z,20.64
2023-05-08T19:52:28.978Z,20.61
2023-05-08T19:54:58.656Z,20.59
2023-05-08T19:57:28.804Z,20.55
2023-05-08T19:59:58.072Z,20.51
2023-05-08T20:02:28.191Z,20.49
2023-05-08T20:07:29.654Z,20.39
2023-05-08T20:09:58.769Z,20.26
2023-05-08T20:12:28.894Z,20.14
2023-05-08T20:14:57.977Z,20.00
2023-05-08T20:17:26.939Z,19.89
2023-05-08T20:19:55.560Z,19.83
2023-05-08T20:22:25.441Z,19.75
2023-05-08T20:24:53.979Z,19.70
2023-05-08T20:27:23.481Z,19.65
2023-05-08T20:29:53.767Z,19.63
2023-05-08T20:32:22.965Z,19.58
2023-05-08T20:34:52.056Z,19.56
2023-05-08T20:37:20.889Z,19.52
2023-05-08T20:39:49.256Z,19.48
2023-05-08T20:42:17.719Z,19.44
2023-05-08T20:44:46.100Z,19.38
2023-05-08T20:47:15.947Z,19.33
2023-05-08T20:49:44.266Z,19.29
2023-05-08T20:52:12.558Z,19.25
2023-05-08T20:54:41.104Z,19.25
2023-05-08T20:57:09.689Z,19.23
2023-05-08T20:59:39.948Z,19.19
2023-05-08T21:02:08.749Z,19.14
2023-05-08T21:04:38.570Z,19.08
2023-05-08T21:07:07.205Z,19.04
2023-05-08T21:09:35.735Z,19.01
2023-05-08T21:12:04.311Z,18.99
2023-05-08T21:14:32.802Z,18.97
2023-05-08T21:17:01.398Z,18.97
2023-05-08T21:19:31.267Z,19.00
2023-05-08T21:22:01.028Z,19.02
2023-05-08T21:24:29.708Z,19.05
2023-05-08T21:26:59.651Z,19.06
2023-05-08T21:29:28.598Z,19.07
2023-05-08T21:31:57.682Z,19.08
2023-05-08T21:34:26.707Z,19.07
2023-05-08T21:36:55.348Z,19.08
2023-05-08T21:39:25.253Z,19.08
2023-05-08T21:41:53.678Z,19.05
2023-05-08T21:44:22.706Z,19.02
2023-05-08T21:46:51.639Z,18.95
2023-05-08T21:49:23.751Z,18.89
2023-05-08T21:51:53.030Z,18.83
2023-05-08T21:54:24.679Z,18.76
2023-05-08T21:56:55.423Z,18.71
2023-05-08T21:59:23.787Z,18.70
2023-05-08T22:01:53.086Z,18.69
2023-05-08T22:04:22.301Z,18.70
2023-05-08T22:06:50.847Z,18.71
2023-05-08T22:09:19.707Z,18.74
2023-05-08T22:11:48.152Z,18.78
2023-05-08T22:14:17.935Z,18.80
2023-05-08T22:16:46.351Z,18.82
2023-05-08T22:19:14.653Z,18.80
2023-05-08T22:21:43.566Z,18.80
2023-05-08T22:24:12.446Z,18.80
2023-05-08T22:26:40.746Z,18.80
2023-05-08T22:29:12.034Z,18.79
2023-05-08T22:31:42.005Z,18.78
2023-05-08T22:34:10.517Z,18.78
2023-05-08T22:36:39.143Z,18.77
2023-05-08T22:39:10.114Z,18.75
2023-05-08T22:41:38.832Z,18.72
2023-05-08T22:44:08.044Z,18.69
2023-05-08T22:46:37.090Z,18.68
2023-05-08T22:49:07.348Z,18.65
2023-05-08T22:51:36.201Z,18.61
2023-05-08T22:54:04.653Z,18.57
2023-05-08T22:56:33.064Z,18.50
2023-05-08T22:59:01.360Z,18.45
2023-05-08T23:01:29.806Z,18.38
2023-05-08T23:03:58.488Z,18.31
2023-05-08T23:06:28.521Z,18.25
2023-05-08T23:08:56.860Z,18.18
2023-05-08T23:11:26.891Z,18.11
2023-05-08T23:13:55.484Z,18.07
2023-05-08T23:16:23.956Z,18.04
2023-05-08T23:18:53.019Z,18.05
2023-05-08T23:21:21.696Z,18.02
2023-05-08T23:23:52.910Z,17.96
2023-05-08T23:26:22.288Z,17.92
2023-05-08T23:28:50.704Z,17.87
2023-05-08T23:31:19.845Z,17.86
2023-05-08T23:33:48.445Z,17.85
2023-05-08T23:36:17.000Z,17.87
2023-05-08T23:38:45.505Z,17.93
2023-05-08T23:41:15.467Z,18.01
2023-05-08T23:43:43.904Z,18.08
2023-05-08T23:46:12.272Z,18.12
2023-05-08T23:48:40.936Z,18.16
2023-05-08T23:51:12.213Z,18.17
2023-05-08T23:53:40.930Z,18.19
2023-05-08T23:56:09.657Z,18.20
2023-05-08T23:58:39.805Z,18.23
